createdAt,value
2019-01-26T00:01:32.773Z,0.00
2019-01-26T00:04:01.836Z,0.10
2019-01-26T00:06:30.752Z,0.10
2019-01-26T00:08:59.769Z,0.10
2019-01-26T00:11:48.329Z,0.20
2019-01-26T00:14:36.613Z,0.10
2019-01-26T00:17:05.767Z,0.10
2019-01-26T00:19:34.667Z,0.10
2019-01-26T00:22:03.743Z,0.10
2019-01-26T00:24:32.678Z,0.10
2019-01-26T00:27:01.627Z,0.20
2019-01-26T00:29:30.611Z,0.20
2019-01-26T00:31:59.585Z,0.20
2019-01-26T00:34:28.428Z,0.20
2019-01-26T00:36:57.406Z,0.20
2019-01-26T00:39:26.293Z,0.20
2019-01-26T00:41:55.282Z,0.20
2019-01-26T00:44:24.078Z,0.30
2019-01-26T00:46:53.034Z,0.30
2019-01-26T00:49:21.832Z,0.30
2019-01-26T00:51:50.972Z,0.40
2019-01-26T00:54:19.759Z,0.50
2019-01-26T00:56:48.629Z,0.40
2019-01-26T00:59:17.604Z,0.40
2019-01-26T01:01:46.592Z,0.40
2019-01-26T01:04:15.612Z,0.30
2019-01-26T01:06:45.191Z,0.20
2019-01-26T01:09:14.288Z,0.10
2019-01-26T01:11:43.570Z,-0.10
2019-01-26T01:14:12.604Z,-0.10
2019-01-26T01:16:41.778Z,-0.20
2019-01-26T01:19:10.901Z,-0.20
2019-01-26T01:21:39.819Z,-0.20
2019-01-26T01:24:08.924Z,-0.20
2019-01-26T01:26:37.884Z,-0.20
2019-01-26T01:29:06.939Z,-0.10
2019-01-26T01:31:35.881Z,-0.10
2019-01-26T01:34:04.852Z,-0.10
2019-01-26T01:36:34.004Z,0.00
2019-01-26T01:39:03.529Z,0.00
2019-01-26T01:41:32.582Z,0.00
2019-01-26T01:44:01.724Z,0.10
2019-01-26T01:46:30.507Z,0.10
2019-01-26T01:48:59.478Z,0.10
2019-01-26T01:51:28.673Z,0.10
2019-01-26T01:53:57.528Z,0.20
2019-01-26T01:56:26.337Z,0.20
2019-01-26T01:58:55.247Z,0.30
2019-01-26T02:01:24.504Z,0.40
2019-01-26T02:03:53.658Z,0.40
2019-01-26T02:06:22.573Z,0.50
2019-01-26T02:08:51.480Z,0.50
2019-01-26T02:11:20.722Z,0.60
2019-01-26T02:13:49.667Z,0.70
2019-01-26T02:16:18.605Z,0.70
2019-01-26T02:18:47.587Z,0.80
2019-01-26T02:21:17.219Z,0.80
2019-01-26T02:23:46.186Z,0.90
2019-01-26T02:26:15.357Z,0.90
2019-01-26T02:28:44.364Z,0.90
2019-01-26T02:31:23.747Z,0.90
2019-01-26T02:33:52.765Z,1.00
2019-01-26T02:36:21.803Z,1.00
2019-01-26T02:38:50.642Z,1.00
2019-01-26T02:41:19.868Z,1.00
2019-01-26T02:43:48.677Z,1.00
2019-01-26T02:46:17.542Z,1.00
2019-01-26T02:48:46.529Z,1.00
2019-01-26T02:51:15.462Z,1.10
2019-01-26T02:53:44.357Z,1.00
2019-01-26T02:56:13.289Z,1.10
2019-01-26T02:58:42.193Z,1.10
2019-01-26T03:01:11.409Z,1.10
2019-01-26T03:03:40.231Z,1.10
2019-01-26T03:06:09.283Z,1.10
2019-01-26T03:08:38.243Z,1.10
2019-01-26T03:11:07.232Z,1.10
2019-01-26T03:13:36.431Z,1.10
2019-01-26T03:16:05.443Z,1.10
2019-01-26T03:18:34.386Z,1.20
2019-01-26T03:21:03.352Z,1.20
2019-01-26T03:23:32.365Z,1.20
2019-01-26T03:26:01.257Z,1.20
2019-01-26T03:28:30.196Z,1.20
2019-01-26T03:30:59.163Z,1.20
2019-01-26T03:33:28.376Z,1.20
2019-01-26T03:35:57.329Z,1.20
2019-01-26T03:38:26.528Z,1.30
2019-01-26T03:40:55.434Z,1.20
2019-01-26T03:43:24.658Z,1.30
2019-01-26T03:45:53.473Z,1.30
2019-01-26T03:48:22.332Z,1.30
2019-01-26T03:50:51.309Z,1.40
2019-01-26T03:53:20.279Z,1.40
2019-01-26T03:55:49.458Z,1.40
2019-01-26T03:58:18.348Z,1.40
2019-01-26T04:00:47.349Z,1.40
2019-01-26T04:03:16.400Z,1.40
2019-01-26T04:05:45.282Z,1.40
2019-01-26T04:08:14.552Z,1.50
2019-01-26T04:10:43.730Z,1.50
2019-01-26T04:13:12.613Z,1.50
2019-01-26T04:15:41.662Z,1.60
2019-01-26T04:18:10.440Z,1.60
2019-01-26T04:20:39.466Z,1.60
2019-01-26T04:23:08.781Z,1.60
2019-01-26T04:25:37.867Z,1.60
2019-01-26T04:28:06.657Z,1.60
2019-01-26T04:30:35.832Z,1.70
2019-01-26T04:33:04.765Z,1.70
2019-01-26T04:35:33.581Z,1.70
2019-01-26T04:38:02.529Z,1.70
2019-01-26T04:40:31.506Z,1.70
2019-01-26T04:43:00.411Z,1.80
2019-01-26T04:45:29.396Z,1.80
2019-01-26T04:47:58.229Z,1.80
2019-01-26T04:50:27.029Z,1.80
2019-01-26T04:52:55.896Z,1.80
2019-01-26T04:55:24.780Z,1.90
2019-01-26T04:57:53.644Z,1.90
2019-01-26T05:00:27.212Z,1.90
2019-01-26T05:02:56.287Z,1.90
2019-01-26T05:05:25.258Z,1.90
2019-01-26T05:07:54.229Z,1.90
2019-01-26T05:10:23.157Z,1.90
2019-01-26T05:12:52.033Z,2.00
2019-01-26T05:15:21.030Z,2.00
2019-01-26T05:17:50.083Z,2.00
2019-01-26T05:20:21.368Z,2.00
2019-01-26T05:22:50.291Z,1.90
2019-01-26T05:25:19.281Z,1.90
2019-01-26T05:27:48.197Z,1.90
2019-01-26T05:30:28.400Z,1.90
2019-01-26T05:32:57.245Z,1.90
2019-01-26T05:35:26.104Z,2.00
2019-01-26T05:37:54.973Z,1.90
2019-01-26T05:40:23.829Z,2.00
2019-01-26T05:42:52.627Z,1.90
2019-01-26T05:45:22.461Z,2.00
2019-01-26T05:47:51.650Z,2.00
2019-01-26T05:50:22.353Z,2.00
2019-01-26T05:52:51.482Z,2.10
2019-01-26T05:55:20.359Z,2.10
2019-01-26T05:57:49.545Z,2.10
2019-01-26T06:00:27.655Z,2.10
2019-01-26T06:02:56.754Z,2.20
2019-01-26T06:05:25.754Z,2.20
2019-01-26T06:07:54.605Z,2.20
2019-01-26T06:10:23.549Z,2.20
2019-01-26T06:12:52.489Z,2.20
2019-01-26T06:15:21.520Z,2.20
2019-01-26T06:17:55.007Z,2.20
2019-01-26T06:20:20.973Z,2.20
2019-01-26T06:22:49.757Z,2.20
2019-01-26T06:25:19.032Z,2.20
2019-01-26T06:27:48.158Z,2.20
2019-01-26T06:30:24.878Z,2.20
2019-01-26T06:32:53.823Z,2.20
2019-01-26T06:35:22.741Z,2.20
2019-01-26T06:37:51.523Z,2.20
2019-01-26T06:40:20.836Z,2.20
2019-01-26T06:42:49.695Z,2.20
2019-01-26T06:45:19.553Z,2.20
2019-01-26T06:47:48.420Z,2.20
2019-01-26T06:50:21.904Z,2.20
2019-01-26T06:52:50.765Z,2.20
2019-01-26T06:55:19.712Z,2.20
2019-01-26T06:57:48.652Z,2.30
2019-01-26T07:00:19.592Z,2.30
2019-01-26T07:02:48.447Z,2.30
2019-01-26T07:05:34.938Z,2.30
2019-01-26T07:08:03.849Z,2.30
2019-01-26T07:10:43.370Z,2.40
2019-01-26T07:13:12.724Z,2.40
2019-01-26T07:15:42.014Z,2.50
2019-01-26T07:18:11.034Z,2.50
2019-01-26T07:20:40.169Z,2.40
2019-01-26T07:23:09.366Z,2.50
2019-01-26T07:25:38.216Z,2.50
2019-01-26T07:28:07.158Z,2.50
2019-01-26T07:30:35.998Z,2.50
2019-01-26T07:33:06.574Z,2.50
2019-01-26T07:35:35.483Z,2.50
2019-01-26T07:38:04.876Z,2.50
2019-01-26T07:40:33.822Z,2.50
2019-01-26T07:43:03.071Z,2.50
2019-01-26T07:45:32.165Z,2.60
2019-01-26T07:48:01.135Z,2.60
2019-01-26T07:50:30.687Z,2.70
2019-01-26T07:53:00.805Z,2.70
2019-01-26T07:55:29.798Z,2.70
2019-01-26T07:57:58.717Z,2.70
2019-01-26T08:00:27.849Z,2.80
2019-01-26T08:02:56.881Z,2.80
2019-01-26T08:05:26.807Z,2.80
2019-01-26T08:07:55.900Z,2.90
2019-01-26T08:10:26.420Z,2.90
2019-01-26T08:12:55.397Z,3.00
2019-01-26T08:15:26.790Z,3.00
2019-01-26T08:17:55.788Z,3.00
2019-01-26T08:20:25.153Z,3.00
2019-01-26T08:22:54.499Z,3.10
2019-01-26T08:25:23.435Z,3.10
2019-01-26T08:27:52.319Z,3.10
2019-01-26T08:30:22.102Z,3.10
2019-01-26T08:32:51.129Z,3.10
2019-01-26T08:35:20.187Z,3.20
2019-01-26T08:37:49.294Z,3.20
2019-01-26T08:40:19.069Z,3.20
2019-01-26T08:42:48.373Z,3.20
2019-01-26T08:45:17.427Z,3.20
2019-01-26T08:47:46.388Z,3.20
2019-01-26T08:50:20.691Z,3.20
2019-01-26T08:52:50.884Z,3.20
2019-01-26T08:55:19.784Z,3.20
2019-01-26T08:57:48.785Z,3.20
2019-01-26T09:00:22.965Z,3.20
2019-01-26T09:03:11.429Z,3.10
2019-01-26T09:05:55.942Z,3.20
2019-01-26T09:08:24.793Z,3.20
2019-01-26T09:10:53.972Z,3.20
2019-01-26T09:13:22.765Z,3.30
2019-01-26T09:15:51.637Z,3.30
2019-01-26T09:18:20.648Z,3.30
2019-01-26T09:20:49.456Z,3.40
2019-01-26T09:23:18.557Z,3.40
2019-01-26T09:25:47.708Z,3.40
2019-01-26T09:28:16.655Z,3.30
2019-01-26T09:30:45.528Z,3.40
2019-01-26T09:33:14.494Z,3.40
2019-01-26T09:35:43.435Z,3.50
2019-01-26T09:38:12.265Z,3.50
2019-01-26T09:40:41.221Z,3.60
2019-01-26T09:43:10.272Z,3.60
2019-01-26T09:45:39.249Z,3.50
2019-01-26T09:48:08.197Z,3.60
2019-01-26T09:50:37.149Z,3.60
2019-01-26T09:53:06.203Z,3.70
2019-01-26T09:55:35.148Z,3.70
2019-01-26T09:58:04.371Z,3.70
2019-01-26T10:00:33.185Z,3.80
2019-01-26T10:03:02.024Z,3.90
2019-01-26T10:05:30.821Z,3.90
2019-01-26T10:07:59.758Z,4.00
2019-01-26T10:10:28.872Z,4.00
2019-01-26T10:12:57.726Z,4.00
2019-01-26T10:15:27.276Z,4.00
2019-01-26T10:17:56.780Z,4.10
2019-01-26T10:20:28.505Z,4.10
2019-01-26T10:22:57.418Z,4.10
2019-01-26T10:25:26.463Z,4.20
2019-01-26T10:27:55.325Z,4.20
2019-01-26T10:30:31.636Z,4.20
2019-01-26T10:33:00.556Z,4.30
2019-01-26T10:35:47.459Z,4.30
2019-01-26T10:38:16.275Z,4.40
2019-01-26T10:41:07.272Z,4.50
2019-01-26T10:43:39.448Z,4.60
2019-01-26T10:46:08.316Z,4.70
2019-01-26T10:48:37.121Z,4.80
2019-01-26T10:51:05.993Z,4.90
2019-01-26T10:53:34.740Z,5.00
2019-01-26T10:56:03.548Z,5.10
2019-01-26T10:58:32.340Z,5.00
2019-01-26T11:01:01.552Z,5.00
2019-01-26T11:03:30.453Z,5.00
2019-01-26T11:05:59.406Z,5.00
2019-01-26T11:08:28.309Z,5.00
2019-01-26T11:10:57.378Z,5.00
2019-01-26T11:13:26.273Z,5.00
2019-01-26T11:15:55.165Z,5.10
2019-01-26T11:18:24.116Z,5.10
2019-01-26T11:20:53.044Z,5.20
2019-01-26T11:23:22.045Z,5.20
2019-01-26T11:25:51.105Z,5.30
2019-01-26T11:28:20.416Z,5.40
2019-01-26T11:30:49.433Z,5.50
2019-01-26T11:33:18.433Z,5.50
2019-01-26T11:35:47.414Z,5.60
2019-01-26T11:38:16.429Z,5.60
2019-01-26T11:40:45.233Z,5.60
2019-01-26T11:43:14.366Z,5.70
2019-01-26T11:46:05.245Z,5.80
2019-01-26T11:48:37.728Z,5.80
2019-01-26T11:51:21.357Z,5.90
2019-01-26T11:53:50.488Z,5.80
2019-01-26T11:56:36.936Z,5.80
2019-01-26T11:59:05.932Z,5.90
2019-01-26T12:01:45.951Z,5.90
2019-01-26T12:04:37.197Z,5.80
2019-01-26T12:07:09.158Z,5.90
2019-01-26T12:09:38.177Z,5.80
2019-01-26T12:12:07.393Z,5.90
2019-01-26T12:14:36.420Z,6.00
2019-01-26T12:17:05.417Z,6.10
2019-01-26T12:19:34.505Z,6.10
2019-01-26T12:22:03.405Z,6.10
2019-01-26T12:24:32.656Z,6.10
2019-01-26T12:27:01.701Z,6.00
2019-01-26T12:29:30.914Z,6.10
2019-01-26T12:32:00.932Z,6.00
2019-01-26T12:34:29.929Z,6.00
2019-01-26T12:36:58.961Z,6.00
2019-01-26T12:39:27.930Z,6.00
2019-01-26T12:41:56.883Z,6.00
2019-01-26T12:44:25.701Z,6.00
2019-01-26T12:46:55.286Z,6.10
2019-01-26T12:49:29.496Z,6.20
2019-01-26T12:51:55.068Z,6.30
2019-01-26T12:54:23.880Z,6.30
2019-01-26T12:56:52.669Z,6.40
2019-01-26T12:59:21.665Z,6.40
2019-01-26T13:01:50.451Z,6.40
2019-01-26T13:04:19.410Z,6.30
2019-01-26T13:06:48.645Z,6.20
2019-01-26T13:09:17.791Z,6.20
2019-01-26T13:11:47.185Z,6.30
2019-01-26T13:14:16.092Z,6.30
2019-01-26T13:16:45.025Z,6.20
2019-01-26T13:19:13.981Z,6.20
2019-01-26T13:21:42.883Z,6.20
2019-01-26T13:24:11.805Z,6.20
2019-01-26T13:26:40.983Z,6.20
2019-01-26T13:29:09.956Z,6.20
2019-01-26T13:31:38.953Z,6.20
2019-01-26T13:34:08.021Z,6.20
2019-01-26T13:36:36.965Z,6.20
2019-01-26T13:39:08.885Z,6.10
2019-01-26T13:41:38.333Z,6.10
2019-01-26T13:44:07.422Z,6.10
2019-01-26T13:46:36.476Z,6.10
2019-01-26T13:49:05.544Z,6.10
2019-01-26T13:51:34.474Z,6.10
2019-01-26T13:54:03.432Z,6.10
2019-01-26T13:56:32.425Z,6.20
2019-01-26T13:59:01.393Z,6.20
2019-01-26T14:01:30.189Z,6.30
2019-01-26T14:03:59.076Z,6.30
2019-01-26T14:06:28.045Z,6.30
2019-01-26T14:08:56.931Z,6.30
2019-01-26T14:11:25.981Z,6.40
2019-01-26T14:13:54.950Z,6.60
2019-01-26T14:16:23.802Z,6.80
2019-01-26T14:18:53.105Z,6.90
2019-01-26T14:21:22.546Z,7.20
2019-01-26T14:23:51.571Z,7.50
2019-01-26T14:26:20.653Z,7.40
2019-01-26T14:28:50.357Z,7.30
2019-01-26T14:31:19.737Z,7.20
2019-01-26T14:33:48.610Z,7.00
2019-01-26T14:36:17.600Z,7.00
2019-01-26T14:38:46.813Z,7.00
2019-01-26T14:41:15.949Z,7.00
2019-01-26T14:43:44.801Z,7.00
2019-01-26T14:46:13.720Z,6.90
2019-01-26T14:48:42.772Z,6.80
2019-01-26T14:51:11.686Z,6.90
2019-01-26T14:53:47.459Z,6.90
2019-01-26T14:56:11.223Z,7.30
2019-01-26T14:58:40.005Z,8.10
2019-01-26T15:01:08.944Z,8.30
2019-01-26T15:03:37.906Z,8.70
2019-01-26T15:06:06.853Z,8.50
2019-01-26T15:08:35.680Z,8.50
2019-01-26T15:11:04.593Z,8.10
2019-01-26T15:13:33.364Z,7.70
2019-01-26T15:16:02.241Z,7.20
2019-01-26T15:18:31.092Z,6.90
2019-01-26T15:20:59.974Z,6.70
2019-01-26T15:23:28.817Z,6.50
2019-01-26T15:25:57.858Z,6.40
2019-01-26T15:28:26.634Z,6.30
2019-01-26T15:30:55.489Z,6.30
2019-01-26T15:33:24.977Z,6.20
2019-01-26T15:35:53.840Z,6.20
2019-01-26T15:38:22.627Z,6.10
2019-01-26T15:40:51.417Z,6.00
2019-01-26T15:43:20.496Z,6.00
2019-01-26T15:45:50.199Z,6.00
2019-01-26T15:48:18.997Z,5.90
2019-01-26T15:50:47.934Z,5.90
2019-01-26T15:53:16.811Z,5.90
2019-01-26T15:55:45.693Z,5.80
2019-01-26T15:58:14.637Z,5.70
2019-01-26T16:00:45.240Z,5.70
2019-01-26T16:03:14.508Z,5.60
2019-01-26T16:05:43.459Z,5.50
2019-01-26T16:08:12.655Z,5.40
2019-01-26T16:10:41.448Z,5.40
2019-01-26T16:13:10.325Z,5.30
2019-01-26T16:15:39.466Z,5.30
2019-01-26T16:18:11.119Z,5.20
2019-01-26T16:20:39.948Z,5.20
2019-01-26T16:23:09.533Z,5.20
2019-01-26T16:25:38.529Z,5.20
2019-01-26T16:28:07.488Z,5.10
2019-01-26T16:30:36.512Z,5.10
2019-01-26T16:33:05.541Z,5.10
2019-01-26T16:35:34.342Z,5.10
2019-01-26T16:38:04.346Z,5.00
2019-01-26T16:40:34.466Z,5.00
2019-01-26T16:43:03.401Z,5.00
2019-01-26T16:45:34.093Z,5.00
2019-01-26T16:48:03.159Z,5.00
2019-01-26T16:50:32.305Z,4.90
2019-01-26T16:53:01.257Z,4.90
2019-01-26T16:55:30.209Z,4.90
2019-01-26T16:57:59.232Z,4.90
2019-01-26T17:00:39.276Z,4.90
2019-01-26T17:03:08.237Z,4.90
2019-01-26T17:05:37.322Z,4.80
2019-01-26T17:08:06.878Z,4.80
2019-01-26T17:10:35.947Z,4.70
2019-01-26T17:13:05.040Z,4.70
2019-01-26T17:15:33.836Z,4.60
2019-01-26T17:18:03.165Z,4.60
2019-01-26T17:20:35.042Z,4.60
2019-01-26T17:23:04.082Z,4.60
2019-01-26T17:25:32.944Z,4.60
2019-01-26T17:28:01.889Z,4.60
2019-01-26T17:30:32.893Z,4.50
2019-01-26T17:33:07.423Z,4.50
2019-01-26T17:35:32.726Z,4.50
2019-01-26T17:38:01.672Z,4.50
2019-01-26T17:40:30.897Z,4.50
2019-01-26T17:42:59.883Z,4.40
2019-01-26T17:45:28.782Z,4.40
2019-01-26T17:47:57.710Z,4.40
2019-01-26T17:50:26.973Z,4.40
2019-01-26T17:52:55.900Z,4.40
2019-01-26T17:55:24.757Z,4.30
2019-01-26T17:57:53.730Z,4.30
2019-01-26T18:00:31.988Z,4.30
2019-01-26T18:03:00.848Z,4.30
2019-01-26T18:05:29.823Z,4.20
2019-01-26T18:07:58.752Z,4.30
2019-01-26T18:10:27.955Z,4.30
2019-01-26T18:12:56.994Z,4.20
2019-01-26T18:15:25.861Z,4.20
2019-01-26T18:17:54.759Z,4.20
2019-01-26T18:20:25.357Z,4.20
2019-01-26T18:22:54.393Z,4.20
2019-01-26T18:25:27.087Z,4.20
2019-01-26T18:27:55.875Z,4.20
2019-01-26T18:30:25.426Z,4.20
2019-01-26T18:32:54.448Z,4.20
2019-01-26T18:35:23.393Z,4.20
2019-01-26T18:37:52.264Z,4.20
2019-01-26T18:40:22.997Z,4.20
2019-01-26T18:42:51.928Z,4.20
2019-01-26T18:45:22.085Z,4.20
2019-01-26T18:47:50.932Z,4.10
2019-01-26T18:50:21.848Z,4.10
2019-01-26T18:52:50.753Z,4.20
2019-01-26T18:55:19.969Z,4.20
2019-01-26T18:57:49.209Z,4.20
2019-01-26T19:00:32.718Z,4.20
2019-01-26T19:03:18.275Z,4.30
2019-01-26T19:05:47.135Z,4.30
2019-01-26T19:08:16.283Z,4.40
2019-01-26T19:10:45.233Z,4.40
2019-01-26T19:13:14.330Z,4.50
2019-01-26T19:15:43.133Z,4.50
2019-01-26T19:18:11.976Z,4.60
2019-01-26T19:20:40.900Z,4.60
2019-01-26T19:23:10.108Z,4.70
2019-01-26T19:25:38.968Z,4.70
2019-01-26T19:28:07.888Z,4.70
2019-01-26T19:30:36.893Z,4.70
2019-01-26T19:33:06.148Z,4.70
2019-01-26T19:35:35.121Z,4.60
2019-01-26T19:38:04.222Z,4.60
2019-01-26T19:40:33.109Z,4.50
2019-01-26T19:43:01.895Z,4.50
2019-01-26T19:45:30.737Z,4.50
2019-01-26T19:47:59.681Z,4.50
2019-01-26T19:50:28.652Z,4.50
2019-01-26T19:52:57.426Z,4.50
2019-01-26T19:55:26.373Z,4.40
2019-01-26T19:57:55.178Z,4.40
2019-01-26T20:00:24.405Z,4.40
2019-01-26T20:02:53.265Z,4.40
2019-01-26T20:05:22.466Z,4.40
2019-01-26T20:07:51.545Z,4.40
2019-01-26T20:10:20.630Z,4.40
2019-01-26T20:12:49.645Z,4.30
2019-01-26T20:15:19.703Z,4.30
2019-01-26T20:17:49.035Z,4.30
2019-01-26T20:20:20.822Z,4.30
2019-01-26T20:22:49.702Z,4.30
2019-01-26T20:25:19.072Z,4.30
2019-01-26T20:27:48.016Z,4.30
2019-01-26T20:30:19.835Z,4.30
2019-01-26T20:32:49.040Z,4.30
2019-01-26T20:35:17.988Z,4.30
2019-01-26T20:37:46.802Z,4.30
2019-01-26T20:40:16.384Z,4.30
2019-01-26T20:42:45.456Z,4.20
2019-01-26T20:45:16.891Z,4.30
2019-01-26T20:47:45.773Z,4.30
2019-01-26T20:50:14.818Z,4.40
2019-01-26T20:52:44.112Z,4.40
2019-01-26T20:55:13.580Z,4.40
2019-01-26T20:57:42.603Z,4.40
2019-01-26T21:00:20.902Z,4.40
2019-01-26T21:02:49.838Z,4.40
2019-01-26T21:05:18.716Z,4.50
2019-01-26T21:07:47.722Z,4.50
2019-01-26T21:10:21.619Z,4.50
2019-01-26T21:12:50.974Z,4.40
2019-01-26T21:15:20.101Z,4.40
2019-01-26T21:17:49.005Z,4.40
2019-01-26T21:20:18.956Z,4.40
2019-01-26T21:22:47.860Z,4.30
2019-01-26T21:25:16.956Z,4.30
2019-01-26T21:27:45.907Z,4.30
2019-01-26T21:30:22.905Z,4.30
2019-01-26T21:32:51.855Z,4.30
2019-01-26T21:35:20.803Z,4.30
2019-01-26T21:37:49.725Z,4.40
2019-01-26T21:40:20.859Z,4.40
2019-01-26T21:42:49.927Z,4.40
2019-01-26T21:45:19.028Z,4.40
2019-01-26T21:47:47.952Z,4.40
2019-01-26T21:50:19.258Z,4.40
2019-01-26T21:52:48.156Z,4.40
2019-01-26T21:55:17.362Z,4.50
2019-01-26T21:57:46.245Z,4.50
2019-01-26T22:00:20.040Z,4.50
2019-01-26T22:02:48.965Z,4.50
2019-01-26T22:05:17.915Z,4.60
2019-01-26T22:07:47.025Z,4.50
2019-01-26T22:10:17.429Z,4.50
2019-01-26T22:12:46.638Z,4.40
2019-01-26T22:15:17.521Z,4.40
2019-01-26T22:17:46.400Z,4.40
2019-01-26T22:20:17.625Z,4.30
2019-01-26T22:22:47.068Z,4.30
2019-01-26T22:25:16.124Z,4.20
2019-01-26T22:27:45.373Z,4.20
2019-01-26T22:30:17.180Z,4.10
2019-01-26T22:32:46.050Z,4.10
2019-01-26T22:35:15.088Z,4.10
2019-01-26T22:37:44.380Z,4.10
2019-01-26T22:40:16.782Z,4.00
2019-01-26T22:42:45.804Z,4.00
2019-01-26T22:45:14.980Z,4.00
2019-01-26T22:47:44.416Z,3.90
2019-01-26T22:50:14.409Z,3.90
2019-01-26T22:52:43.339Z,3.90
2019-01-26T22:55:13.073Z,3.90
2019-01-26T22:57:41.954Z,3.90
2019-01-26T23:00:20.516Z,3.80
2019-01-26T23:02:49.488Z,3.80
2019-01-26T23:05:46.295Z,3.80
2019-01-26T23:08:23.124Z,3.80
2019-01-26T23:11:13.004Z,3.70
2019-01-26T23:13:55.312Z,3.70
2019-01-26T23:16:56.969Z,3.70
2019-01-26T23:19:59.632Z,3.80
2019-01-26T23:23:01.660Z,3.80
2019-01-26T23:25:54.229Z,3.80
2019-01-26T23:28:40.386Z,3.70
2019-01-26T23:31:16.663Z,3.70
2019-01-26T23:33:46.837Z,3.70
2019-01-26T23:36:16.150Z,3.80
2019-01-26T23:38:45.119Z,3.70
2019-01-26T23:41:14.044Z,3.70
2019-01-26T23:43:42.832Z,3.80
2019-01-26T23:46:11.897Z,3.80
2019-01-26T23:48:40.773Z,3.90
2019-01-26T23:51:09.720Z,4.00
2019-01-26T23:53:38.633Z,4.00
2019-01-26T23:56:07.783Z,4.00
2019-01-26T23:58:36.633Z,4.00
